Time;durP1;ratioP1;P1;durP2;ratioP2;P2;SDS_P1;SDS_P2;PMS_P1;PMS_P2;Temp;Humidity;BMP_temperature;BMP_pressure;BME280_temperature;BME280_humidity;BME280_pressure;Samples;Min_cycle;Max_cycle;Signal;HPM_P1;HPM_P2
2022/11/25 03:59:18;;;;;;;6.93;2.90;;;4.70;99.70;;;;;;5916393;29;20420;-88
2022/11/25 04:02:20;;;;;;;7.10;3.05;;;4.60;99.70;;;;;;6139642;28;20053;-88
2022/11/25 15:10:38;;;;;;;138.30;59.37;;;13.00;99.90;;;;;;7863514;22;1273294;-80
2022/11/25 15:13:43;;;;;;;100.10;36.10;;;10.30;99.90;;;;;;7728083;22;20838;-83
2022/11/25 15:16:45;;;;;;;223.83;62.53;;;10.50;99.90;;;;;;7693523;23;20398;-82
2022/11/25 15:19:47;;;;;;;101.30;34.28;;;11.30;99.90;;;;;;7705534;23;20031;-84
2022/11/25 15:22:51;;;;;;;80.75;25.90;;;11.90;99.90;;;;;;7693068;23;20099;-83
2022/11/25 15:25:56;;;;;;;26.27;6.40;;;12.30;99.90;;;;;;7692861;23;20436;-83
2022/11/25 15:28:59;;;;;;;56.05;10.75;;;12.30;99.90;;;;;;7692977;23;20356;-83
2022/11/25 15:32:01;;;;;;;26.45;6.50;;;12.20;99.90;;;;;;7692269;23;20531;-83
2022/11/25 15:35:20;;;;;;;11.10;3.03;;;12.20;99.90;;;;;;7695617;23;20552;-83
2022/11/25 15:38:36;;;;;;;36.92;6.43;;;12.20;99.90;;;;;;7693514;23;20483;-84
2022/11/25 15:41:43;;;;;;;35.60;6.78;;;12.10;99.90;;;;;;7695027;23;20594;-83
2022/11/25 15:44:48;;;;;;;32.65;7.65;;;12.20;99.90;;;;;;7696369;23;20028;-83
2022/11/25 15:48:02;;;;;;;41.88;11.13;;;12.30;99.90;;;;;;7690752;23;20076;-84
2022/11/25 15:51:06;;;;;;;39.00;7.55;;;12.00;99.90;;;;;;7697880;23;20052;-83
2022/11/25 15:58:08;;;;;;;45.47;9.20;;;11.90;99.90;;;;;;7714361;23;20020;-84
2022/11/25 17:06:07;;;;;;;31.65;7.82;;;9.60;99.90;;;;;;7284608;24;20152;-86
2022/11/25 22:02:42;;;;;;;;;;;10.10;99.90;;;;;;7788004;22;19922;-84
2022/11/25 22:05:44;;;;;;;;;;;10.70;99.90;;;;;;7752597;22;20412;-83
2022/11/25 22:08:46;;;;;;;;;;;10.10;99.90;;;;;;7740207;23;20422;-84
2022/11/25 22:11:49;;;;;;;;;;;10.70;99.90;;;;;;7765625;23;19961;-84
2022/11/25 22:14:50;;;;;;;;;;;10.10;99.90;;;;;;7729589;23;19931;-84
2022/11/25 22:17:55;;;;;;;;;;;10.70;99.90;;;;;;7725168;23;19915;-83
2022/11/25 22:20:57;;;;;;;;;;;10.80;99.90;;;;;;7725482;23;20040;-84
2022/11/25 22:23:59;;;;;;;;;;;10.10;99.90;;;;;;7727480;23;20347;-83
2022/11/25 22:27:02;;;;;;;;;;;10.10;99.90;;;;;;7726991;23;19922;-84
2022/11/25 22:30:04;;;;;;;;;;;10.10;99.90;;;;;;7728555;23;19923;-84
2022/11/25 22:33:09;;;;;;;;;;;10.10;99.90;;;;;;7721424;23;20298;-83
2022/11/25 22:36:19;;;;;;;;;;;10.60;99.90;;;;;;7718218;23;20100;-84
2022/11/25 22:39:21;;;;;;;;;;;10.00;99.90;;;;;;7720135;23;19915;-83
2022/11/25 22:42:25;;;;;;;;;;;10.00;99.90;;;;;;7719369;23;19998;-84
2022/11/25 22:45:29;;;;;;;;;;;10.00;99.90;;;;;;7719717;23;19990;-84
2022/11/25 22:48:33;;;;;;;;;;;10.00;99.90;;;;;;7719368;23;19915;-83
2022/11/25 22:51:35;;;;;;;;;;;9.90;99.90;;;;;;7719040;23;19930;-83
2022/11/25 22:54:37;;;;;;;;;;;9.80;99.90;;;;;;7720080;23;19922;-84
2022/11/25 22:57:38;;;;;;;;;;;9.70;99.90;;;;;;7715959;23;19923;-85
2022/11/25 23:00:41;;;;;;;;;;;9.70;99.90;;;;;;7716154;23;19968;-84
2022/11/25 23:03:46;;;;;;;;;;;9.70;99.90;;;;;;7717542;23;19923;-83
2022/11/25 23:06:48;;;;;;;;;;;9.50;99.90;;;;;;7767397;22;20374;-83
2022/11/25 23:09:50;;;;;;;;;;;9.40;99.90;;;;;;7794058;22;19982;-84
2022/11/25 23:12:51;;;;;;;;;;;9.30;99.90;;;;;;7792457;22;19941;-85
2022/11/25 23:15:54;;;;;;;;;;;10.50;99.90;;;;;;7794524;22;19915;-84
2022/11/25 23:18:57;;;;;;;;;;;9.30;99.90;;;;;;7802467;22;19961;-84
2022/11/25 23:21:59;;;;;;;;;;;9.30;99.90;;;;;;7797291;22;19925;-83
2022/11/25 23:25:01;;;;;;;;;;;9.40;99.90;;;;;;7747989;22;19924;-83
2022/11/25 23:28:03;;;;;;;;;;;9.40;99.90;;;;;;7767684;22;19990;-83
2022/11/25 23:31:05;;;;;;;;;;;9.50;99.90;;;;;;7803381;22;19937;-85
2022/11/25 23:34:08;;;;;;;;;;;9.60;99.90;;;;;;7791637;22;19915;-84
2022/11/25 23:37:12;;;;;;;;;;;10.70;99.90;;;;;;7791575;22;19915;-84
2022/11/25 23:40:16;;;;;;;;;;;9.60;99.90;;;;;;7790322;22;19922;-84
2022/11/25 23:43:17;;;;;;;;;;;9.60;99.90;;;;;;7793197;22;20331;-83
2022/11/25 23:46:20;;;;;;;;;;;9.50;99.90;;;;;;7792356;22;20285;-85
2022/11/25 23:49:24;;;;;;;;;;;9.50;99.90;;;;;;7790403;22;20439;-84
2022/11/25 23:52:26;;;;;;;;;;;9.50;99.90;;;;;;7791108;22;19933;-84
2022/11/25 23:55:29;;;;;;;;;;;9.60;99.90;;;;;;7792487;22;19915;-84
2022/11/25 23:58:31;;;;;;;;;;;10.70;99.90;;;;;;7790080;22;19921;-84
